sensor_id;sensor_type;location;lat;lon;timestamp;P1;durP1;ratioP1;P2;durP2;ratioP2
76795;SDS011;65745;50.278;18.192;2023-07-16T00:01:20;9.70;;;8.70;;
76795;SDS011;65745;50.278;18.192;2023-07-16T00:03:52;10.10;;;9.10;;
76795;SDS011;65745;50.278;18.192;2023-07-16T00:06:24;9.10;;;8.20;;
76795;SDS011;65745;50.278;18.192;2023-07-16T00:08:56;9.70;;;8.70;;
76795;SDS011;65745;50.278;18.192;2023-07-16T00:11:29;9.30;;;8.30;;
76795;SDS011;65745;50.278;18.192;2023-07-16T00:14:01;10.40;;;9.00;;
76795;SDS011;65745;50.278;18.192;2023-07-16T00:16:33;10.00;;;8.80;;
76795;SDS011;65745;50.278;18.192;2023-07-16T00:19:05;10.90;;;9.80;;
76795;SDS011;65745;50.278;18.192;2023-07-16T00:21:37;11.10;;;9.30;;
76795;SDS011;65745;50.278;18.192;2023-07-16T00:24:09;10.80;;;9.70;;
76795;SDS011;65745;50.278;18.192;2023-07-16T00:26:41;10.90;;;9.80;;
76795;SDS011;65745;50.278;18.192;2023-07-16T00:29:13;11.30;;;9.70;;
76795;SDS011;65745;50.278;18.192;2023-07-16T00:31:46;9.90;;;8.90;;
76795;SDS011;65745;50.278;18.192;2023-07-16T00:34:18;10.10;;;9.20;;
76795;SDS011;65745;50.278;18.192;2023-07-16T00:36:50;11.50;;;9.50;;
76795;SDS011;65745;50.278;18.192;2023-07-16T00:39:23;10.90;;;9.70;;
76795;SDS011;65745;50.278;18.192;2023-07-16T00:41:55;10.90;;;9.10;;
76795;SDS011;65745;50.278;18.192;2023-07-16T00:44:27;11.00;;;9.90;;
76795;SDS011;65745;50.278;18.192;2023-07-16T00:46:59;10.70;;;9.60;;
76795;SDS011;65745;50.278;18.192;2023-07-16T00:49:31;10.00;;;9.00;;
76795;SDS011;65745;50.278;18.192;2023-07-16T00:52:04;11.40;;;10.30;;
76795;SDS011;65745;50.278;18.192;2023-07-16T00:54:38;10.70;;;9.60;;
76795;SDS011;65745;50.278;18.192;2023-07-16T00:57:10;11.10;;;10.10;;
76795;SDS011;65745;50.278;18.192;2023-07-16T00:59:42;11.70;;;10.60;;
76795;SDS011;65745;50.278;18.192;2023-07-16T01:02:14;10.80;;;9.70;;
76795;SDS011;65745;50.278;18.192;2023-07-16T01:04:46;11.10;;;10.00;;
76795;SDS011;65745;50.278;18.192;2023-07-16T01:07:19;11.60;;;10.50;;
76795;SDS011;65745;50.278;18.192;2023-07-16T01:09:54;10.90;;;9.80;;
76795;SDS011;65745;50.278;18.192;2023-07-16T01:12:27;10.90;;;9.80;;
76795;SDS011;65745;50.278;18.192;2023-07-16T01:15:01;11.70;;;10.60;;
76795;SDS011;65745;50.278;18.192;2023-07-16T01:17:34;11.00;;;9.90;;
76795;SDS011;65745;50.278;18.192;2023-07-16T01:20:07;11.50;;;10.50;;
76795;SDS011;65745;50.278;18.192;2023-07-16T01:22:46;11.50;;;10.40;;
76795;SDS011;65745;50.278;18.192;2023-07-16T01:25:44;12.50;;;11.40;;
76795;SDS011;65745;50.278;18.192;2023-07-16T01:28:43;13.20;;;12.00;;
76795;SDS011;65745;50.278;18.192;2023-07-16T01:31:29;12.40;;;11.10;;
76795;SDS011;65745;50.278;18.192;2023-07-16T01:34:03;12.90;;;11.40;;
76795;SDS011;65745;50.278;18.192;2023-07-16T01:36:37;11.50;;;10.30;;
76795;SDS011;65745;50.278;18.192;2023-07-16T01:39:11;12.30;;;11.10;;
76795;SDS011;65745;50.278;18.192;2023-07-16T01:41:43;11.40;;;10.20;;
76795;SDS011;65745;50.278;18.192;2023-07-16T01:44:16;13.50;;;12.10;;
76795;SDS011;65745;50.278;18.192;2023-07-16T01:46:49;16.00;;;11.30;;
76795;SDS011;65745;50.278;18.192;2023-07-16T01:49:36;12.70;;;11.50;;
76795;SDS011;65745;50.278;18.192;2023-07-16T01:52:09;11.60;;;10.50;;
76795;SDS011;65745;50.278;18.192;2023-07-16T01:54:41;14.50;;;12.50;;
76795;SDS011;65745;50.278;18.192;2023-07-16T01:57:13;13.60;;;12.30;;
76795;SDS011;65745;50.278;18.192;2023-07-16T01:59:45;14.30;;;12.80;;
76795;SDS011;65745;50.278;18.192;2023-07-16T02:02:18;12.20;;;11.10;;
76795;SDS011;65745;50.278;18.192;2023-07-16T02:04:50;14.20;;;12.70;;
76795;SDS011;65745;50.278;18.192;2023-07-16T02:07:22;12.70;;;11.40;;
76795;SDS011;65745;50.278;18.192;2023-07-16T02:09:54;12.80;;;11.50;;
76795;SDS011;65745;50.278;18.192;2023-07-16T02:12:26;13.10;;;11.70;;
76795;SDS011;65745;50.278;18.192;2023-07-16T02:14:58;11.70;;;10.50;;
76795;SDS011;65745;50.278;18.192;2023-07-16T02:17:36;12.30;;;11.20;;
76795;SDS011;65745;50.278;18.192;2023-07-16T02:20:09;12.50;;;11.10;;
76795;SDS011;65745;50.278;18.192;2023-07-16T02:22:42;14.60;;;11.70;;
76795;SDS011;65745;50.278;18.192;2023-07-16T02:25:14;12.40;;;11.20;;
76795;SDS011;65745;50.278;18.192;2023-07-16T02:27:48;12.50;;;11.30;;
76795;SDS011;65745;50.278;18.192;2023-07-16T02:30:20;12.90;;;11.70;;
76795;SDS011;65745;50.278;18.192;2023-07-16T02:32:52;13.00;;;11.60;;
76795;SDS011;65745;50.278;18.192;2023-07-16T02:35:24;12.50;;;11.30;;
76795;SDS011;65745;50.278;18.192;2023-07-16T02:37:57;12.90;;;11.70;;
76795;SDS011;65745;50.278;18.192;2023-07-16T02:40:29;12.30;;;11.10;;
76795;SDS011;65745;50.278;18.192;2023-07-16T02:43:01;12.70;;;11.50;;
76795;SDS011;65745;50.278;18.192;2023-07-16T02:45:33;12.90;;;11.40;;
76795;SDS011;65745;50.278;18.192;2023-07-16T02:48:06;13.00;;;11.60;;
76795;SDS011;65745;50.278;18.192;2023-07-16T02:50:39;13.20;;;11.90;;
76795;SDS011;65745;50.278;18.192;2023-07-16T02:53:11;14.60;;;12.50;;
76795;SDS011;65745;50.278;18.192;2023-07-16T02:55:44;12.20;;;11.10;;
76795;SDS011;65745;50.278;18.192;2023-07-16T02:58:16;13.10;;;11.80;;
76795;SDS011;65745;50.278;18.192;2023-07-16T03:00:49;13.60;;;12.20;;
76795;SDS011;65745;50.278;18.192;2023-07-16T03:03:21;13.60;;;12.30;;
76795;SDS011;65745;50.278;18.192;2023-07-16T03:05:53;13.60;;;12.20;;
76795;SDS011;65745;50.278;18.192;2023-07-16T03:08:25;13.40;;;12.20;;
76795;SDS011;65745;50.278;18.192;2023-07-16T03:10:59;12.10;;;10.80;;
76795;SDS011;65745;50.278;18.192;2023-07-16T03:13:31;13.20;;;11.90;;
76795;SDS011;65745;50.278;18.192;2023-07-16T03:16:03;12.40;;;11.30;;
76795;SDS011;65745;50.278;18.192;2023-07-16T03:18:36;13.00;;;11.80;;
76795;SDS011;65745;50.278;18.192;2023-07-16T03:21:08;12.90;;;11.70;;
76795;SDS011;65745;50.278;18.192;2023-07-16T03:23:40;13.20;;;11.90;;
76795;SDS011;65745;50.278;18.192;2023-07-16T03:26:12;12.30;;;11.10;;
76795;SDS011;65745;50.278;18.192;2023-07-16T03:28:44;13.70;;;12.40;;
76795;SDS011;65745;50.278;18.192;2023-07-16T03:31:16;14.20;;;12.80;;
76795;SDS011;65745;50.278;18.192;2023-07-16T03:33:50;12.80;;;11.50;;
76795;SDS011;65745;50.278;18.192;2023-07-16T03:36:23;13.60;;;12.40;;
76795;SDS011;65745;50.278;18.192;2023-07-16T03:38:55;17.00;;;15.30;;
76795;SDS011;65745;50.278;18.192;2023-07-16T03:41:27;14.80;;;13.30;;
76795;SDS011;65745;50.278;18.192;2023-07-16T03:43:59;16.40;;;14.80;;
76795;SDS011;65745;50.278;18.192;2023-07-16T03:46:33;14.00;;;12.60;;
76795;SDS011;65745;50.278;18.192;2023-07-16T03:49:07;16.30;;;14.60;;
76795;SDS011;65745;50.278;18.192;2023-07-16T03:51:39;15.30;;;13.80;;
76795;SDS011;65745;50.278;18.192;2023-07-16T03:54:11;15.10;;;13.80;;
76795;SDS011;65745;50.278;18.192;2023-07-16T03:56:45;14.00;;;12.60;;
76795;SDS011;65745;50.278;18.192;2023-07-16T03:59:17;15.90;;;14.30;;
76795;SDS011;65745;50.278;18.192;2023-07-16T04:01:49;16.30;;;14.60;;
76795;SDS011;65745;50.278;18.192;2023-07-16T04:04:22;15.00;;;13.70;;
76795;SDS011;65745;50.278;18.192;2023-07-16T04:06:54;16.00;;;14.60;;
76795;SDS011;65745;50.278;18.192;2023-07-16T04:09:26;15.50;;;14.00;;
76795;SDS011;65745;50.278;18.192;2023-07-16T04:11:58;12.80;;;11.50;;
76795;SDS011;65745;50.278;18.192;2023-07-16T04:14:30;13.80;;;12.50;;
76795;SDS011;65745;50.278;18.192;2023-07-16T04:17:02;14.70;;;13.40;;
76795;SDS011;65745;50.278;18.192;2023-07-16T04:19:35;14.70;;;13.30;;
76795;SDS011;65745;50.278;18.192;2023-07-16T04:22:07;15.90;;;14.50;;
76795;SDS011;65745;50.278;18.192;2023-07-16T04:24:39;14.60;;;13.10;;
76795;SDS011;65745;50.278;18.192;2023-07-16T04:27:11;15.30;;;13.80;;
76795;SDS011;65745;50.278;18.192;2023-07-16T04:29:43;16.40;;;14.90;;
76795;SDS011;65745;50.278;18.192;2023-07-16T04:32:15;14.80;;;13.20;;
76795;SDS011;65745;50.278;18.192;2023-07-16T04:34:47;15.40;;;13.80;;
76795;SDS011;65745;50.278;18.192;2023-07-16T04:37:19;15.20;;;13.70;;
76795;SDS011;65745;50.278;18.192;2023-07-16T04:39:51;15.30;;;13.80;;
76795;SDS011;65745;50.278;18.192;2023-07-16T04:42:24;15.60;;;14.00;;
76795;SDS011;65745;50.278;18.192;2023-07-16T04:44:56;14.60;;;13.20;;
76795;SDS011;65745;50.278;18.192;2023-07-16T04:47:28;14.20;;;12.90;;
76795;SDS011;65745;50.278;18.192;2023-07-16T04:50:00;14.20;;;12.90;;
76795;SDS011;65745;50.278;18.192;2023-07-16T04:52:32;13.90;;;12.80;;
76795;SDS011;65745;50.278;18.192;2023-07-16T04:55:05;15.30;;;13.80;;
76795;SDS011;65745;50.278;18.192;2023-07-16T04:57:39;12.80;;;11.70;;
76795;SDS011;65745;50.278;18.192;2023-07-16T05:00:11;13.30;;;12.20;;
76795;SDS011;65745;50.278;18.192;2023-07-16T05:02:44;12.50;;;11.30;;
76795;SDS011;65745;50.278;18.192;2023-07-16T05:05:16;13.70;;;12.50;;
76795;SDS011;65745;50.278;18.192;2023-07-16T05:07:48;13.80;;;12.50;;
76795;SDS011;65745;50.278;18.192;2023-07-16T05:10:20;12.80;;;11.70;;
76795;SDS011;65745;50.278;18.192;2023-07-16T05:12:52;14.40;;;12.70;;
76795;SDS011;65745;50.278;18.192;2023-07-16T05:15:24;13.80;;;12.50;;
76795;SDS011;65745;50.278;18.192;2023-07-16T05:17:56;12.70;;;11.60;;
76795;SDS011;65745;50.278;18.192;2023-07-16T05:20:29;12.40;;;11.30;;
76795;SDS011;65745;50.278;18.192;2023-07-16T05:23:01;12.30;;;11.20;;
76795;SDS011;65745;50.278;18.192;2023-07-16T05:25:33;13.80;;;12.50;;
76795;SDS011;65745;50.278;18.192;2023-07-16T05:28:05;12.00;;;10.90;;
76795;SDS011;65745;50.278;18.192;2023-07-16T05:30:37;13.20;;;12.00;;
76795;SDS011;65745;50.278;18.192;2023-07-16T05:33:09;14.30;;;13.10;;
76795;SDS011;65745;50.278;18.192;2023-07-16T05:35:41;14.30;;;13.20;;
76795;SDS011;65745;50.278;18.192;2023-07-16T05:38:18;12.70;;;11.60;;
76795;SDS011;65745;50.278;18.192;2023-07-16T05:40:50;13.10;;;12.00;;
76795;SDS011;65745;50.278;18.192;2023-07-16T05:43:22;13.70;;;12.60;;
76795;SDS011;65745;50.278;18.192;2023-07-16T05:45:54;14.20;;;13.10;;
76795;SDS011;65745;50.278;18.192;2023-07-16T05:48:27;13.80;;;12.40;;
76795;SDS011;65745;50.278;18.192;2023-07-16T05:50:59;12.50;;;11.50;;
76795;SDS011;65745;50.278;18.192;2023-07-16T05:53:31;12.50;;;11.40;;
76795;SDS011;65745;50.278;18.192;2023-07-16T05:56:03;12.80;;;11.70;;
76795;SDS011;65745;50.278;18.192;2023-07-16T05:58:35;14.10;;;13.00;;
76795;SDS011;65745;50.278;18.192;2023-07-16T06:01:07;12.90;;;11.70;;
76795;SDS011;65745;50.278;18.192;2023-07-16T06:03:40;13.40;;;12.30;;
76795;SDS011;65745;50.278;18.192;2023-07-16T06:06:12;12.70;;;11.60;;
76795;SDS011;65745;50.278;18.192;2023-07-16T06:08:44;13.20;;;12.00;;
76795;SDS011;65745;50.278;18.192;2023-07-16T06:11:17;13.60;;;12.50;;
76795;SDS011;65745;50.278;18.192;2023-07-16T06:13:49;12.80;;;11.70;;
76795;SDS011;65745;50.278;18.192;2023-07-16T06:16:22;12.50;;;11.40;;
76795;SDS011;65745;50.278;18.192;2023-07-16T06:18:55;12.80;;;11.70;;
76795;SDS011;65745;50.278;18.192;2023-07-16T06:21:27;12.90;;;11.90;;
76795;SDS011;65745;50.278;18.192;2023-07-16T06:23:59;13.20;;;12.10;;
76795;SDS011;65745;50.278;18.192;2023-07-16T06:26:31;13.90;;;12.70;;
76795;SDS011;65745;50.278;18.192;2023-07-16T06:29:03;14.50;;;13.40;;
76795;SDS011;65745;50.278;18.192;2023-07-16T06:31:35;12.00;;;11.00;;
76795;SDS011;65745;50.278;18.192;2023-07-16T06:34:07;12.60;;;11.50;;
76795;SDS011;65745;50.278;18.192;2023-07-16T06:36:39;13.80;;;12.80;;
76795;SDS011;65745;50.278;18.192;2023-07-16T06:39:11;12.20;;;11.30;;
76795;SDS011;65745;50.278;18.192;2023-07-16T06:41:43;13.60;;;12.30;;
76795;SDS011;65745;50.278;18.192;2023-07-16T06:44:15;13.30;;;12.20;;
76795;SDS011;65745;50.278;18.192;2023-07-16T06:46:47;13.90;;;12.70;;
76795;SDS011;65745;50.278;18.192;2023-07-16T06:49:21;13.50;;;12.40;;
76795;SDS011;65745;50.278;18.192;2023-07-16T06:51:53;13.50;;;12.40;;
76795;SDS011;65745;50.278;18.192;2023-07-16T06:54:25;14.40;;;13.20;;
76795;SDS011;65745;50.278;18.192;2023-07-16T06:56:57;13.30;;;12.30;;
76795;SDS011;65745;50.278;18.192;2023-07-16T06:59:30;12.70;;;11.70;;
76795;SDS011;65745;50.278;18.192;2023-07-16T07:02:02;12.10;;;11.20;;
76795;SDS011;65745;50.278;18.192;2023-07-16T07:04:34;11.90;;;10.80;;
76795;SDS011;65745;50.278;18.192;2023-07-16T07:07:06;11.60;;;10.60;;
76795;SDS011;65745;50.278;18.192;2023-07-16T07:09:38;10.90;;;10.00;;
76795;SDS011;65745;50.278;18.192;2023-07-16T07:12:10;11.70;;;10.60;;
76795;SDS011;65745;50.278;18.192;2023-07-16T07:14:42;10.50;;;9.60;;
76795;SDS011;65745;50.278;18.192;2023-07-16T07:17:16;10.20;;;9.20;;
76795;SDS011;65745;50.278;18.192;2023-07-16T07:19:48;10.60;;;9.70;;
76795;SDS011;65745;50.278;18.192;2023-07-16T07:22:20;9.60;;;8.70;;
76795;SDS011;65745;50.278;18.192;2023-07-16T07:24:52;9.90;;;9.00;;
76795;SDS011;65745;50.278;18.192;2023-07-16T07:27:24;9.30;;;8.40;;
76795;SDS011;65745;50.278;18.192;2023-07-16T07:29:56;8.90;;;8.10;;
76795;SDS011;65745;50.278;18.192;2023-07-16T07:32:29;8.50;;;7.50;;
76795;SDS011;65745;50.278;18.192;2023-07-16T07:35:01;6.90;;;6.30;;
76795;SDS011;65745;50.278;18.192;2023-07-16T07:37:33;7.40;;;6.80;;
76795;SDS011;65745;50.278;18.192;2023-07-16T07:40:06;7.90;;;7.10;;
76795;SDS011;65745;50.278;18.192;2023-07-16T07:42:39;8.80;;;7.40;;
76795;SDS011;65745;50.278;18.192;2023-07-16T07:45:11;7.90;;;7.20;;
76795;SDS011;65745;50.278;18.192;2023-07-16T07:47:43;8.40;;;7.60;;
76795;SDS011;65745;50.278;18.192;2023-07-16T07:50:15;8.00;;;7.20;;
76795;SDS011;65745;50.278;18.192;2023-07-16T07:52:48;8.40;;;6.70;;
76795;SDS011;65745;50.278;18.192;2023-07-16T07:55:20;8.20;;;7.40;;
76795;SDS011;65745;50.278;18.192;2023-07-16T07:57:52;7.30;;;6.70;;
76795;SDS011;65745;50.278;18.192;2023-07-16T08:00:24;7.10;;;6.50;;
76795;SDS011;65745;50.278;18.192;2023-07-16T08:02:56;7.20;;;6.30;;
76795;SDS011;65745;50.278;18.192;2023-07-16T08:05:29;7.50;;;6.60;;
76795;SDS011;65745;50.278;18.192;2023-07-16T08:08:02;7.50;;;6.80;;
76795;SDS011;65745;50.278;18.192;2023-07-16T08:10:35;7.40;;;6.60;;
76795;SDS011;65745;50.278;18.192;2023-07-16T08:13:07;6.80;;;6.20;;
76795;SDS011;65745;50.278;18.192;2023-07-16T08:15:39;7.30;;;6.60;;
76795;SDS011;65745;50.278;18.192;2023-07-16T08:18:11;5.60;;;5.10;;
76795;SDS011;65745;50.278;18.192;2023-07-16T08:20:43;6.30;;;5.70;;
76795;SDS011;65745;50.278;18.192;2023-07-16T08:23:16;5.30;;;4.90;;
76795;SDS011;65745;50.278;18.192;2023-07-16T08:25:51;8.10;;;4.80;;
76795;SDS011;65745;50.278;18.192;2023-07-16T08:28:23;5.10;;;4.30;;
76795;SDS011;65745;50.278;18.192;2023-07-16T08:30:56;5.00;;;4.60;;
76795;SDS011;65745;50.278;18.192;2023-07-16T08:33:28;5.60;;;5.10;;
76795;SDS011;65745;50.278;18.192;2023-07-16T08:36:00;5.50;;;4.30;;
76795;SDS011;65745;50.278;18.192;2023-07-16T08:38:32;5.20;;;3.80;;
76795;SDS011;65745;50.278;18.192;2023-07-16T08:41:04;5.10;;;4.40;;
76795;SDS011;65745;50.278;18.192;2023-07-16T08:43:36;4.10;;;3.30;;
76795;SDS011;65745;50.278;18.192;2023-07-16T08:46:10;3.70;;;3.00;;
76795;SDS011;65745;50.278;18.192;2023-07-16T08:48:42;6.00;;;3.50;;
76795;SDS011;65745;50.278;18.192;2023-07-16T08:51:16;5.50;;;3.50;;
76795;SDS011;65745;50.278;18.192;2023-07-16T08:53:50;5.00;;;3.80;;
76795;SDS011;65745;50.278;18.192;2023-07-16T08:56:22;5.00;;;3.70;;
76795;SDS011;65745;50.278;18.192;2023-07-16T08:58:55;5.80;;;4.10;;
76795;SDS011;65745;50.278;18.192;2023-07-16T09:01:27;6.60;;;3.90;;
76795;SDS011;65745;50.278;18.192;2023-07-16T09:04:00;4.60;;;3.60;;
76795;SDS011;65745;50.278;18.192;2023-07-16T09:06:32;4.30;;;3.90;;
76795;SDS011;65745;50.278;18.192;2023-07-16T09:09:04;4.50;;;4.10;;
76795;SDS011;65745;50.278;18.192;2023-07-16T09:11:36;4.90;;;3.80;;
76795;SDS011;65745;50.278;18.192;2023-07-16T09:14:17;6.20;;;3.80;;
76795;SDS011;65745;50.278;18.192;2023-07-16T09:16:50;5.70;;;4.70;;
76795;SDS011;65745;50.278;18.192;2023-07-16T09:19:24;5.90;;;4.30;;
76795;SDS011;65745;50.278;18.192;2023-07-16T09:21:57;6.20;;;4.10;;
76795;SDS011;65745;50.278;18.192;2023-07-16T09:24:30;4.60;;;3.80;;
76795;SDS011;65745;50.278;18.192;2023-07-16T09:27:02;4.80;;;4.20;;
76795;SDS011;65745;50.278;18.192;2023-07-16T09:29:37;4.90;;;4.20;;
76795;SDS011;65745;50.278;18.192;2023-07-16T09:34:40;3.70;;;3.20;;
76795;SDS011;65745;50.278;18.192;2023-07-16T09:37:12;4.40;;;3.30;;
76795;SDS011;65745;50.278;18.192;2023-07-16T09:39:45;4.30;;;2.90;;
76795;SDS011;65745;50.278;18.192;2023-07-16T09:42:18;3.60;;;2.70;;
76795;SDS011;65745;50.278;18.192;2023-07-16T09:44:53;4.20;;;2.90;;
76795;SDS011;65745;50.278;18.192;2023-07-16T09:47:27;4.30;;;3.00;;
76795;SDS011;65745;50.278;18.192;2023-07-16T09:49:59;4.20;;;2.80;;
76795;SDS011;65745;50.278;18.192;2023-07-16T09:52:31;3.20;;;2.70;;
76795;SDS011;65745;50.278;18.192;2023-07-16T09:55:04;4.20;;;3.30;;
76795;SDS011;65745;50.278;18.192;2023-07-16T10:00:12;4.50;;;2.80;;
76795;SDS011;65745;50.278;18.192;2023-07-16T10:02:46;3.40;;;2.70;;
76795;SDS011;65745;50.278;18.192;2023-07-16T10:05:23;3.30;;;3.00;;
76795;SDS011;65745;50.278;18.192;2023-07-16T10:07:58;5.50;;;3.60;;
76795;SDS011;65745;50.278;18.192;2023-07-16T10:10:39;5.10;;;3.70;;
76795;SDS011;65745;50.278;18.192;2023-07-16T10:13:12;5.20;;;3.40;;
76795;SDS011;65745;50.278;18.192;2023-07-16T10:15:54;4.60;;;4.00;;
76795;SDS011;65745;50.278;18.192;2023-07-16T10:18:28;5.30;;;3.90;;
76795;SDS011;65745;50.278;18.192;2023-07-16T10:21:02;6.80;;;4.30;;
76795;SDS011;65745;50.278;18.192;2023-07-16T10:23:40;4.80;;;4.00;;
76795;SDS011;65745;50.278;18.192;2023-07-16T10:26:14;4.40;;;3.90;;
76795;SDS011;65745;50.278;18.192;2023-07-16T10:28:48;5.20;;;3.70;;
76795;SDS011;65745;50.278;18.192;2023-07-16T10:31:21;4.80;;;4.00;;
76795;SDS011;65745;50.278;18.192;2023-07-16T10:34:01;4.10;;;3.70;;
76795;SDS011;65745;50.278;18.192;2023-07-16T10:36:38;6.20;;;3.70;;
76795;SDS011;65745;50.278;18.192;2023-07-16T10:39:10;4.20;;;3.50;;
76795;SDS011;65745;50.278;18.192;2023-07-16T10:41:43;6.30;;;4.00;;
76795;SDS011;65745;50.278;18.192;2023-07-16T10:44:15;4.70;;;3.20;;
76795;SDS011;65745;50.278;18.192;2023-07-16T10:46:47;5.20;;;3.30;;
76795;SDS011;65745;50.278;18.192;2023-07-16T10:49:27;6.40;;;4.10;;
76795;SDS011;65745;50.278;18.192;2023-07-16T10:52:00;3.70;;;3.20;;
76795;SDS011;65745;50.278;18.192;2023-07-16T10:54:33;5.80;;;4.10;;
76795;SDS011;65745;50.278;18.192;2023-07-16T10:57:05;5.60;;;3.70;;
76795;SDS011;65745;50.278;18.192;2023-07-16T10:59:38;4.50;;;4.10;;
76795;SDS011;65745;50.278;18.192;2023-07-16T11:02:12;4.70;;;3.70;;
76795;SDS011;65745;50.278;18.192;2023-07-16T11:04:46;3.80;;;3.40;;
76795;SDS011;65745;50.278;18.192;2023-07-16T11:07:19;7.10;;;4.20;;
76795;SDS011;65745;50.278;18.192;2023-07-16T11:09:52;6.10;;;4.20;;
76795;SDS011;65745;50.278;18.192;2023-07-16T11:12:25;4.50;;;3.80;;
76795;SDS011;65745;50.278;18.192;2023-07-16T11:14:57;8.10;;;4.10;;
76795;SDS011;65745;50.278;18.192;2023-07-16T11:17:29;4.80;;;4.20;;
76795;SDS011;65745;50.278;18.192;2023-07-16T11:20:02;5.10;;;4.00;;
76795;SDS011;65745;50.278;18.192;2023-07-16T11:25:12;4.10;;;3.80;;
76795;SDS011;65745;50.278;18.192;2023-07-16T11:27:44;4.80;;;4.10;;
76795;SDS011;65745;50.278;18.192;2023-07-16T11:30:21;5.30;;;4.70;;
76795;SDS011;65745;50.278;18.192;2023-07-16T11:32:57;7.40;;;5.50;;
76795;SDS011;65745;50.278;18.192;2023-07-16T11:35:30;6.40;;;5.80;;
76795;SDS011;65745;50.278;18.192;2023-07-16T11:38:02;8.10;;;4.90;;
76795;SDS011;65745;50.278;18.192;2023-07-16T11:40:36;6.80;;;6.10;;
76795;SDS011;65745;50.278;18.192;2023-07-16T11:43:09;7.20;;;5.90;;
76795;SDS011;65745;50.278;18.192;2023-07-16T11:45:47;6.20;;;5.70;;
76795;SDS011;65745;50.278;18.192;2023-07-16T11:48:19;6.30;;;5.70;;
76795;SDS011;65745;50.278;18.192;2023-07-16T11:50:51;5.00;;;4.60;;
76795;SDS011;65745;50.278;18.192;2023-07-16T11:53:23;5.10;;;4.60;;
76795;SDS011;65745;50.278;18.192;2023-07-16T11:55:55;5.30;;;4.90;;
76795;SDS011;65745;50.278;18.192;2023-07-16T11:58:27;5.70;;;5.20;;
76795;SDS011;65745;50.278;18.192;2023-07-16T12:00:59;6.10;;;5.40;;
76795;SDS011;65745;50.278;18.192;2023-07-16T12:03:32;8.60;;;5.80;;
76795;SDS011;65745;50.278;18.192;2023-07-16T12:06:04;6.10;;;4.60;;
76795;SDS011;65745;50.278;18.192;2023-07-16T12:08:36;6.60;;;5.90;;
76795;SDS011;65745;50.278;18.192;2023-07-16T12:11:08;6.60;;;6.10;;
76795;SDS011;65745;50.278;18.192;2023-07-16T12:13:40;6.20;;;5.60;;
76795;SDS011;65745;50.278;18.192;2023-07-16T12:16:13;5.90;;;5.20;;
76795;SDS011;65745;50.278;18.192;2023-07-16T12:18:45;6.30;;;5.80;;
76795;SDS011;65745;50.278;18.192;2023-07-16T12:21:17;7.20;;;6.50;;
76795;SDS011;65745;50.278;18.192;2023-07-16T12:23:49;6.90;;;6.30;;
76795;SDS011;65745;50.278;18.192;2023-07-16T12:26:21;7.70;;;6.90;;
76795;SDS011;65745;50.278;18.192;2023-07-16T12:28:53;6.80;;;6.20;;
76795;SDS011;65745;50.278;18.192;2023-07-16T12:31:25;8.00;;;7.40;;
76795;SDS011;65745;50.278;18.192;2023-07-16T12:33:58;7.50;;;6.80;;
76795;SDS011;65745;50.278;18.192;2023-07-16T12:36:31;7.30;;;6.60;;
76795;SDS011;65745;50.278;18.192;2023-07-16T12:39:03;7.40;;;6.80;;
76795;SDS011;65745;50.278;18.192;2023-07-16T12:41:35;6.90;;;6.30;;
76795;SDS011;65745;50.278;18.192;2023-07-16T12:44:07;7.60;;;7.00;;
76795;SDS011;65745;50.278;18.192;2023-07-16T12:46:39;7.30;;;6.70;;
76795;SDS011;65745;50.278;18.192;2023-07-16T12:49:11;8.40;;;7.60;;
76795;SDS011;65745;50.278;18.192;2023-07-16T12:51:43;7.80;;;7.20;;
76795;SDS011;65745;50.278;18.192;2023-07-16T12:54:15;8.10;;;7.40;;
76795;SDS011;65745;50.278;18.192;2023-07-16T12:56:47;8.10;;;7.30;;
76795;SDS011;65745;50.278;18.192;2023-07-16T13:02:16;8.00;;;7.30;;
76795;SDS011;65745;50.278;18.192;2023-07-16T13:04:49;8.10;;;7.50;;
76795;SDS011;65745;50.278;18.192;2023-07-16T13:07:21;8.50;;;7.70;;
76795;SDS011;65745;50.278;18.192;2023-07-16T13:09:53;8.20;;;7.50;;
76795;SDS011;65745;50.278;18.192;2023-07-16T13:12:44;9.20;;;8.40;;
76795;SDS011;65745;50.278;18.192;2023-07-16T13:15:16;8.90;;;8.30;;
76795;SDS011;65745;50.278;18.192;2023-07-16T13:17:49;8.40;;;7.70;;
76795;SDS011;65745;50.278;18.192;2023-07-16T13:20:21;8.30;;;7.60;;
76795;SDS011;65745;50.278;18.192;2023-07-16T13:22:53;9.00;;;8.20;;
76795;SDS011;65745;50.278;18.192;2023-07-16T13:25:26;8.70;;;8.00;;
76795;SDS011;65745;50.278;18.192;2023-07-16T13:27:59;8.50;;;7.70;;
76795;SDS011;65745;50.278;18.192;2023-07-16T13:30:31;8.00;;;7.30;;
76795;SDS011;65745;50.278;18.192;2023-07-16T13:33:04;8.80;;;8.00;;
76795;SDS011;65745;50.278;18.192;2023-07-16T13:35:37;8.90;;;8.10;;
76795;SDS011;65745;50.278;18.192;2023-07-16T13:38:09;8.60;;;7.80;;
76795;SDS011;65745;50.278;18.192;2023-07-16T13:40:41;9.10;;;8.40;;
76795;SDS011;65745;50.278;18.192;2023-07-16T13:43:13;8.90;;;8.00;;
76795;SDS011;65745;50.278;18.192;2023-07-16T13:45:45;8.80;;;8.00;;
76795;SDS011;65745;50.278;18.192;2023-07-16T13:48:17;9.00;;;8.20;;
76795;SDS011;65745;50.278;18.192;2023-07-16T13:50:49;9.00;;;8.10;;
76795;SDS011;65745;50.278;18.192;2023-07-16T13:53:21;8.50;;;7.70;;
76795;SDS011;65745;50.278;18.192;2023-07-16T13:55:53;8.00;;;7.40;;
76795;SDS011;65745;50.278;18.192;2023-07-16T13:58:25;9.70;;;8.80;;
76795;SDS011;65745;50.278;18.192;2023-07-16T14:00:57;9.10;;;8.20;;
76795;SDS011;65745;50.278;18.192;2023-07-16T14:03:29;9.40;;;7.60;;
76795;SDS011;65745;50.278;18.192;2023-07-16T14:06:02;8.50;;;7.80;;
76795;SDS011;65745;50.278;18.192;2023-07-16T14:08:34;8.20;;;7.50;;
76795;SDS011;65745;50.278;18.192;2023-07-16T14:11:06;8.80;;;8.00;;
76795;SDS011;65745;50.278;18.192;2023-07-16T14:13:38;8.60;;;7.90;;
76795;SDS011;65745;50.278;18.192;2023-07-16T14:16:10;8.70;;;7.70;;
76795;SDS011;65745;50.278;18.192;2023-07-16T14:18:42;7.90;;;7.30;;
76795;SDS011;65745;50.278;18.192;2023-07-16T14:21:14;7.50;;;6.80;;
76795;SDS011;65745;50.278;18.192;2023-07-16T14:23:46;8.20;;;7.40;;
76795;SDS011;65745;50.278;18.192;2023-07-16T14:26:18;8.40;;;7.60;;
76795;SDS011;65745;50.278;18.192;2023-07-16T14:28:50;7.90;;;7.10;;
76795;SDS011;65745;50.278;18.192;2023-07-16T14:31:22;8.20;;;7.50;;
76795;SDS011;65745;50.278;18.192;2023-07-16T14:33:54;7.10;;;6.50;;
76795;SDS011;65745;50.278;18.192;2023-07-16T14:36:26;7.30;;;6.60;;
76795;SDS011;65745;50.278;18.192;2023-07-16T14:38:58;7.50;;;6.80;;
76795;SDS011;65745;50.278;18.192;2023-07-16T14:41:30;6.70;;;6.10;;
76795;SDS011;65745;50.278;18.192;2023-07-16T14:44:03;6.30;;;5.70;;
76795;SDS011;65745;50.278;18.192;2023-07-16T14:46:35;6.60;;;6.00;;
76795;SDS011;65745;50.278;18.192;2023-07-16T14:49:07;6.10;;;5.60;;
76795;SDS011;65745;50.278;18.192;2023-07-16T14:51:39;6.90;;;6.20;;
76795;SDS011;65745;50.278;18.192;2023-07-16T14:54:11;6.80;;;6.10;;
76795;SDS011;65745;50.278;18.192;2023-07-16T14:56:44;6.10;;;5.50;;
76795;SDS011;65745;50.278;18.192;2023-07-16T14:59:16;6.00;;;5.20;;
76795;SDS011;65745;50.278;18.192;2023-07-16T15:01:48;5.40;;;4.70;;
76795;SDS011;65745;50.278;18.192;2023-07-16T15:04:21;5.90;;;4.70;;
76795;SDS011;65745;50.278;18.192;2023-07-16T15:06:53;5.90;;;4.60;;